This is the latest recevied weather packets stored in our database for station/object N9CQL. If no packets are shown the sender has not sent any weather packets the latest 10 day(s).
| Time | Temp. | Humidity | Pressure | Rain* | Wind** | Luminosity | Snow |
|---|---|---|---|---|---|---|---|
| 1777485656 | 10.56° C | 82% | 1012.4 hPa | 0 mm | - | 66 W/m² | - |
| 1777485351 | 10.56° C | 81% | 1012.2 hPa | 0 mm | - | 46 W/m² | - |
| 1777485048 | 10.56° C | 80% | 1012.4 hPa | 0 mm | - | 45 W/m² | - |
| 1777484745 | 11.11° C | 80% | 1012.3 hPa | 0 mm | - | 29 W/m² | - |
| 1777484441 | 11.67° C | 79% | 1012.2 hPa | 0 mm | - | 55 W/m² | - |
| 1777484138 | 12.22° C | 78% | 1012 hPa | 0 mm | - | 48 W/m² | - |
| 1777483834 | 12.78° C | 76% | 1012.1 hPa | 0 mm | - | 42 W/m² | - |
| 1777483531 | 12.78° C | 75% | 1011.9 hPa | 0 mm | - | 93 W/m² | - |
| 1777483226 | 13.33° C | 74% | 1011.7 hPa | 0 mm | - | 160 W/m² | - |
| 1777482922 | 13.33° C | 73% | 1011.9 hPa | 0 mm | - | 218 W/m² | - |
| 1777482618 | 13.89° C | 66% | 1011.9 hPa | 0 mm | - | 180 W/m² | - |
| 1777482316 | 13.89° C | 64% | 1011.7 hPa | 0 mm | - | 196 W/m² | - |
| 1777482013 | 13.89° C | 66% | 1011.7 hPa | 0 mm | - | 70 W/m² | - |
| 1777481710 | 13.89° C | 65% | 1011.6 hPa | 0 mm | - | 50 W/m² | - |
| 1777481408 | 13.89° C | 66% | 1011.5 hPa | 0 mm | - | 82 W/m² | - |
| 1777481104 | 13.33° C | 70% | 1011.6 hPa | 0 mm | - | 245 W/m² | - |
| 1777480800 | 13.33° C | 71% | 1011.8 hPa | 0 mm | - | 104 W/m² | - |
| 1777480497 | 13.33° C | 70% | 1011.9 hPa | 0 mm | - | 162 W/m² | - |
| 1777480193 | 13.33° C | 71% | 1011.8 hPa | 0 mm | - | 132 W/m² | - |
| 1777479890 | 13.33° C | 70% | 1011.9 hPa | 0 mm | - | 42 W/m² | - |
| 1777479586 | 13.89° C | 69% | 1011.9 hPa | 0 mm | - | 47 W/m² | - |
| 1777479284 | 15° C | 68% | 1011.8 hPa | 0 mm | - | 83 W/m² | - |
| 1777478981 | 13.33° C | 70% | 1012 hPa | 0 mm | - | 656 W/m² | - |
| 1777478677 | 12.78° C | 72% | 1011.9 hPa | 0 mm | - | 891 W/m² | - |
| 1777478374 | 12.78° C | 72% | 1011.9 hPa | 0 mm | - | 153 W/m² | - |
* Rain latest hour (hover to see other rain measurements)
** Current wind speed in m/s (hover to see current wind gust speed)